| DS18B20 | SHTC3 | PZEM-004T | WiFi | ||||||||
|---|---|---|---|---|---|---|---|---|---|---|---|
| ID | Date d/m/Y & Time | data1 สูง | data2 ต่ำ | data3 นอก | temp pcb | hum pcb | Volt | Amp | Watt | rssi | Time |
| 14495 | 21/08/2026 00:05:17 | 30.2  | 30.4  | 27.7  | 31.1  | 67.7  | 223.9  | 0.04  | 4.6  | -76  | 00:05 |
| 14494 | 21/08/2026 00:00:34 | 30.2  | 30.4  | 27.7  | 31.1  | 67.6  | 224.3  | 0.04  | 4.6  | -80  | 00:00 |
| 14493 | 20/08/2026 23:55:51 | 30.3  | 30.4  | 27.7  | 31.1  | 67.6  | 224.3  | 0.04  | 4.6  | -78  | 23:55 |
| 14492 | 20/08/2026 23:51:08 | 30.3  | 30.4  | 27.7  | 31.1  | 67.5  | 224.1  | 0.04  | 4.6  | -78  | 23:51 |
| 14491 | 20/08/2026 23:46:24 | 30.3  | 30.5  | 27.6  | 31.2  | 67.5  | 222.8  | 0.04  | 4.6  | -79  | 23:46 |
| 14490 | 20/08/2026 23:41:41 | 30.4  | 30.5  | 27.5  | 31.4  | 67.6  | 226.0  | 0.04  | 4.6  | -78  | 23:41 |
| 14489 | 20/08/2026 23:36:56 | 30.4  | 30.5  | 27.6  | 31.4  | 67.6  | 225.0  | 0.04  | 4.6  | -78  | 23:36 |
| 14488 | 20/08/2026 23:32:13 | 30.4  | 30.6  | 27.5  | 31.4  | 67.5  | 226.3  | 0.04  | 4.6  | -76  | 23:32 |
| 14487 | 20/08/2026 23:27:30 | 30.4  | 30.6  | 27.8  | 31.4  | 67.5  | 223.9  | 0.04  | 4.6  | -79  | 23:27 |
| 14486 | 20/08/2026 23:22:47 | 30.4  | 30.6  | 27.7  | 31.5  | 67.5  | 226.3  | 0.04  | 4.6  | -78  | 23:22 |
| 14485 | 20/08/2026 23:18:04 | 30.5  | 30.6  | 27.7  | 31.4  | 67.4  | 224.0  | 0.04  | 4.6  | -77  | 23:18 |
| 14484 | 20/08/2026 23:13:20 | 30.5  | 30.6  | 28.0  | 31.5  | 67.5  | 226.3  | 0.04  | 4.6  | -77  | 23:13 |
| 14483 | 20/08/2026 23:08:37 | 30.6  | 30.6  | 28.0  | 31.5  | 67.5  | 224.0  | 0.04  | 4.6  | -78  | 23:08 |
| 14482 | 20/08/2026 23:03:54 | 30.6  | 30.7  | 28.0  | 31.4  | 67.4  | 226.5  | 0.04  | 4.6  | -77  | 23:03 |
| 14481 | 20/08/2026 22:59:11 | 30.6  | 30.7  | 28.0  | 31.4  | 67.4  | 226.8  | 0.04  | 4.6  | -78  | 22:59 |
| 14480 | 20/08/2026 22:54:28 | 30.6  | 30.8  | 28.2  | 31.6  | 67.5  | 228.6  | 0.04  | 4.6  | -76  | 22:54 |
| 14479 | 20/08/2026 22:49:45 | 30.6  | 30.8  | 28.2  | 31.6  | 67.4  | 226.4  | 0.04  | 4.6  | -78  | 22:49 |
| 14478 | 20/08/2026 22:45:01 | 30.7  | 30.8  | 28.0  | 31.6  | 67.5  | 226.4  | 0.04  | 4.6  | -79  | 22:45 |
| 14477 | 20/08/2026 22:40:18 | 30.7  | 30.8  | 28.1  | 31.6  | 67.4  | 227.7  | 0.04  | 4.5  | -78  | 22:40 |
| 14476 | 20/08/2026 22:35:35 | 30.7  | 30.8  | 28.3  | 31.7  | 67.4  | 226.0  | 0.04  | 4.6  | -79  | 22:35 |
| 14475 | 20/08/2026 22:30:52 | 30.7  | 30.9  | 28.3  | 31.7  | 67.4  | 227.3  | 0.04  | 4.6  | -78  | 22:30 |
| 14474 | 20/08/2026 22:26:08 | 30.8  | 30.9  | 28.3  | 31.7  | 67.5  | 225.6  | 0.04  | 4.6  | -76  | 22:26 |
| 14473 | 20/08/2026 22:21:25 | 30.8  | 30.9  | 28.4  | 31.6  | 67.3  | 228.2  | 0.04  | 4.6  | -77  | 22:21 |
| 14472 | 20/08/2026 22:16:41 | 30.8  | 30.9  | 28.4  | 31.7  | 67.4  | 228.1  | 0.04  | 4.5  | -78  | 22:16 |